sensor_id;sensor_type;location;lat;lon;timestamp;P1;durP1;ratioP1;P2;durP2;ratioP2
15077;SDS011;7638;49.760;8.646;2023-02-19T00:01:36;5.43;;;4.17;;
15077;SDS011;7638;49.760;8.646;2023-02-19T00:04:03;4.80;;;3.77;;
15077;SDS011;7638;49.760;8.646;2023-02-19T00:06:30;6.37;;;4.30;;
15077;SDS011;7638;49.760;8.646;2023-02-19T00:08:57;5.50;;;4.23;;
15077;SDS011;7638;49.760;8.646;2023-02-19T00:11:24;5.17;;;4.67;;
15077;SDS011;7638;49.760;8.646;2023-02-19T00:13:51;5.37;;;4.43;;
15077;SDS011;7638;49.760;8.646;2023-02-19T00:16:19;5.23;;;4.33;;
15077;SDS011;7638;49.760;8.646;2023-02-19T00:18:45;4.97;;;4.27;;
15077;SDS011;7638;49.760;8.646;2023-02-19T00:21:11;4.13;;;3.60;;
15077;SDS011;7638;49.760;8.646;2023-02-19T00:23:38;5.87;;;3.80;;
15077;SDS011;7638;49.760;8.646;2023-02-19T00:26:07;5.60;;;4.17;;
15077;SDS011;7638;49.760;8.646;2023-02-19T00:28:33;4.57;;;4.10;;
15077;SDS011;7638;49.760;8.646;2023-02-19T00:31:06;6.10;;;4.03;;
15077;SDS011;7638;49.760;8.646;2023-02-19T00:33:33;4.83;;;4.30;;
15077;SDS011;7638;49.760;8.646;2023-02-19T00:36:03;5.83;;;4.03;;
15077;SDS011;7638;49.760;8.646;2023-02-19T00:38:34;4.50;;;4.10;;
15077;SDS011;7638;49.760;8.646;2023-02-19T00:41:01;6.53;;;4.30;;
15077;SDS011;7638;49.760;8.646;2023-02-19T00:43:43;5.40;;;4.33;;
15077;SDS011;7638;49.760;8.646;2023-02-19T00:46:09;5.77;;;4.10;;
15077;SDS011;7638;49.760;8.646;2023-02-19T00:48:35;4.17;;;3.77;;
15077;SDS011;7638;49.760;8.646;2023-02-19T00:51:01;4.93;;;4.10;;
15077;SDS011;7638;49.760;8.646;2023-02-19T00:53:26;4.87;;;3.87;;
15077;SDS011;7638;49.760;8.646;2023-02-19T00:55:52;5.73;;;4.43;;
15077;SDS011;7638;49.760;8.646;2023-02-19T00:58:18;5.47;;;3.47;;
15077;SDS011;7638;49.760;8.646;2023-02-19T01:00:51;8.33;;;4.10;;
15077;SDS011;7638;49.760;8.646;2023-02-19T01:03:17;8.13;;;4.07;;
15077;SDS011;7638;49.760;8.646;2023-02-19T01:05:42;4.67;;;4.10;;
15077;SDS011;7638;49.760;8.646;2023-02-19T01:08:08;5.83;;;3.50;;
15077;SDS011;7638;49.760;8.646;2023-02-19T01:10:35;5.93;;;4.07;;
15077;SDS011;7638;49.760;8.646;2023-02-19T01:13:01;6.00;;;4.07;;
15077;SDS011;7638;49.760;8.646;2023-02-19T01:15:27;5.23;;;4.00;;
15077;SDS011;7638;49.760;8.646;2023-02-19T01:17:53;5.03;;;3.50;;
15077;SDS011;7638;49.760;8.646;2023-02-19T01:20:19;6.27;;;3.50;;
15077;SDS011;7638;49.760;8.646;2023-02-19T01:22:45;5.70;;;4.23;;
15077;SDS011;7638;49.760;8.646;2023-02-19T01:25:11;5.90;;;4.27;;
15077;SDS011;7638;49.760;8.646;2023-02-19T01:27:36;4.37;;;3.97;;
15077;SDS011;7638;49.760;8.646;2023-02-19T01:30:03;5.03;;;4.53;;
15077;SDS011;7638;49.760;8.646;2023-02-19T01:32:29;6.07;;;4.17;;
15077;SDS011;7638;49.760;8.646;2023-02-19T01:34:55;5.57;;;4.33;;
15077;SDS011;7638;49.760;8.646;2023-02-19T01:37:21;5.00;;;4.30;;
15077;SDS011;7638;49.760;8.646;2023-02-19T01:39:47;4.77;;;4.20;;
15077;SDS011;7638;49.760;8.646;2023-02-19T01:42:14;4.60;;;4.07;;
15077;SDS011;7638;49.760;8.646;2023-02-19T01:47:10;6.07;;;4.23;;
15077;SDS011;7638;49.760;8.646;2023-02-19T01:49:40;5.07;;;4.17;;
15077;SDS011;7638;49.760;8.646;2023-02-19T01:52:23;6.27;;;4.07;;
15077;SDS011;7638;49.760;8.646;2023-02-19T01:54:52;4.43;;;4.03;;
15077;SDS011;7638;49.760;8.646;2023-02-19T01:57:20;4.67;;;3.70;;
15077;SDS011;7638;49.760;8.646;2023-02-19T01:59:48;6.23;;;4.50;;
15077;SDS011;7638;49.760;8.646;2023-02-19T02:02:22;5.03;;;4.33;;
15077;SDS011;7638;49.760;8.646;2023-02-19T02:04:51;4.37;;;3.50;;
15077;SDS011;7638;49.760;8.646;2023-02-19T02:07:17;5.53;;;4.63;;
15077;SDS011;7638;49.760;8.646;2023-02-19T02:10:02;7.03;;;4.37;;
15077;SDS011;7638;49.760;8.646;2023-02-19T02:12:44;5.80;;;3.60;;
15077;SDS011;7638;49.760;8.646;2023-02-19T02:15:10;5.27;;;3.97;;
15077;SDS011;7638;49.760;8.646;2023-02-19T02:30:30;4.07;;;3.67;;
15077;SDS011;7638;49.760;8.646;2023-02-19T02:33:16;5.70;;;3.43;;
15077;SDS011;7638;49.760;8.646;2023-02-19T02:38:11;3.77;;;3.40;;
15077;SDS011;7638;49.760;8.646;2023-02-19T02:40:39;3.63;;;3.20;;
15077;SDS011;7638;49.760;8.646;2023-02-19T02:43:07;3.90;;;3.50;;
15077;SDS011;7638;49.760;8.646;2023-02-19T02:45:33;5.77;;;3.23;;
15077;SDS011;7638;49.760;8.646;2023-02-19T02:47:59;3.53;;;2.83;;
15077;SDS011;7638;49.760;8.646;2023-02-19T02:50:29;4.37;;;3.83;;
15077;SDS011;7638;49.760;8.646;2023-02-19T02:52:58;4.77;;;3.10;;
15077;SDS011;7638;49.760;8.646;2023-02-19T02:55:43;3.47;;;3.13;;
15077;SDS011;7638;49.760;8.646;2023-02-19T02:58:14;3.77;;;2.77;;
15077;SDS011;7638;49.760;8.646;2023-02-19T03:00:42;3.87;;;3.00;;
15077;SDS011;7638;49.760;8.646;2023-02-19T03:03:27;6.50;;;3.17;;
15077;SDS011;7638;49.760;8.646;2023-02-19T03:05:56;2.70;;;2.43;;
15077;SDS011;7638;49.760;8.646;2023-02-19T03:08:24;3.10;;;2.70;;
15077;SDS011;7638;49.760;8.646;2023-02-19T03:10:53;4.23;;;3.47;;
15077;SDS011;7638;49.760;8.646;2023-02-19T03:13:25;4.70;;;2.90;;
15077;SDS011;7638;49.760;8.646;2023-02-19T03:16:16;3.67;;;3.23;;
15077;SDS011;7638;49.760;8.646;2023-02-19T03:19:01;4.60;;;3.17;;
15077;SDS011;7638;49.760;8.646;2023-02-19T03:21:46;4.13;;;3.17;;
15077;SDS011;7638;49.760;8.646;2023-02-19T03:24:14;4.40;;;3.20;;
15077;SDS011;7638;49.760;8.646;2023-02-19T03:27:00;3.87;;;3.33;;
15077;SDS011;7638;49.760;8.646;2023-02-19T03:29:28;4.23;;;3.83;;
15077;SDS011;7638;49.760;8.646;2023-02-19T03:31:59;4.77;;;3.13;;
15077;SDS011;7638;49.760;8.646;2023-02-19T03:34:31;3.33;;;3.03;;
15077;SDS011;7638;49.760;8.646;2023-02-19T03:37:12;7.40;;;4.13;;
15077;SDS011;7638;49.760;8.646;2023-02-19T03:39:39;4.87;;;3.83;;
15077;SDS011;7638;49.760;8.646;2023-02-19T03:42:13;4.57;;;3.40;;
15077;SDS011;7638;49.760;8.646;2023-02-19T03:44:46;4.07;;;3.67;;
15077;SDS011;7638;49.760;8.646;2023-02-19T03:47:26;4.43;;;4.00;;
15077;SDS011;7638;49.760;8.646;2023-02-19T03:57:26;4.77;;;4.00;;
15077;SDS011;7638;49.760;8.646;2023-02-19T03:59:58;3.83;;;3.27;;
15077;SDS011;7638;49.760;8.646;2023-02-19T04:02:34;5.20;;;4.33;;
15077;SDS011;7638;49.760;8.646;2023-02-19T04:05:08;3.67;;;3.37;;
15077;SDS011;7638;49.760;8.646;2023-02-19T04:07:36;4.10;;;3.67;;
15077;SDS011;7638;49.760;8.646;2023-02-19T04:10:03;5.27;;;3.87;;
15077;SDS011;7638;49.760;8.646;2023-02-19T04:12:30;4.47;;;3.80;;
15077;SDS011;7638;49.760;8.646;2023-02-19T04:14:58;4.43;;;3.80;;
15077;SDS011;7638;49.760;8.646;2023-02-19T04:17:27;4.53;;;3.30;;
15077;SDS011;7638;49.760;8.646;2023-02-19T04:19:54;3.90;;;3.40;;
15077;SDS011;7638;49.760;8.646;2023-02-19T04:22:22;4.60;;;4.00;;
15077;SDS011;7638;49.760;8.646;2023-02-19T04:24:49;3.83;;;3.43;;
15077;SDS011;7638;49.760;8.646;2023-02-19T04:27:15;4.13;;;3.50;;
15077;SDS011;7638;49.760;8.646;2023-02-19T04:29:41;6.67;;;4.00;;
15077;SDS011;7638;49.760;8.646;2023-02-19T04:32:08;4.93;;;3.40;;
15077;SDS011;7638;49.760;8.646;2023-02-19T04:34:34;4.20;;;3.80;;
15077;SDS011;7638;49.760;8.646;2023-02-19T04:37:00;3.67;;;3.30;;
15077;SDS011;7638;49.760;8.646;2023-02-19T04:39:26;9.17;;;4.17;;
15077;SDS011;7638;49.760;8.646;2023-02-19T04:41:52;5.87;;;3.80;;
15077;SDS011;7638;49.760;8.646;2023-02-19T04:44:18;6.67;;;3.87;;
15077;SDS011;7638;49.760;8.646;2023-02-19T04:46:45;5.47;;;4.57;;
15077;SDS011;7638;49.760;8.646;2023-02-19T04:49:11;4.97;;;3.87;;
15077;SDS011;7638;49.760;8.646;2023-02-19T04:51:37;5.77;;;4.77;;
15077;SDS011;7638;49.760;8.646;2023-02-19T04:54:03;5.27;;;4.07;;
15077;SDS011;7638;49.760;8.646;2023-02-19T04:56:29;6.23;;;4.30;;
15077;SDS011;7638;49.760;8.646;2023-02-19T04:58:55;4.67;;;4.17;;
15077;SDS011;7638;49.760;8.646;2023-02-19T05:01:24;7.67;;;4.30;;
15077;SDS011;7638;49.760;8.646;2023-02-19T05:03:51;4.73;;;4.03;;
15077;SDS011;7638;49.760;8.646;2023-02-19T05:06:17;5.67;;;4.30;;
15077;SDS011;7638;49.760;8.646;2023-02-19T05:08:43;4.63;;;3.70;;
15077;SDS011;7638;49.760;8.646;2023-02-19T05:11:10;4.60;;;4.10;;
15077;SDS011;7638;49.760;8.646;2023-02-19T05:13:36;4.73;;;3.80;;
15077;SDS011;7638;49.760;8.646;2023-02-19T05:16:06;6.00;;;4.37;;
15077;SDS011;7638;49.760;8.646;2023-02-19T05:18:33;5.07;;;4.30;;
15077;SDS011;7638;49.760;8.646;2023-02-19T05:20:59;7.67;;;4.37;;
15077;SDS011;7638;49.760;8.646;2023-02-19T05:23:25;6.93;;;4.53;;
15077;SDS011;7638;49.760;8.646;2023-02-19T05:25:52;4.90;;;4.10;;
15077;SDS011;7638;49.760;8.646;2023-02-19T05:28:18;7.77;;;4.47;;
15077;SDS011;7638;49.760;8.646;2023-02-19T05:30:46;7.40;;;4.77;;
15077;SDS011;7638;49.760;8.646;2023-02-19T05:33:12;4.57;;;3.80;;
15077;SDS011;7638;49.760;8.646;2023-02-19T05:35:42;7.30;;;4.50;;
15077;SDS011;7638;49.760;8.646;2023-02-19T05:38:09;5.83;;;4.13;;
15077;SDS011;7638;49.760;8.646;2023-02-19T05:40:35;7.53;;;4.37;;
15077;SDS011;7638;49.760;8.646;2023-02-19T05:43:02;4.80;;;4.30;;
15077;SDS011;7638;49.760;8.646;2023-02-19T05:45:28;4.27;;;3.87;;
15077;SDS011;7638;49.760;8.646;2023-02-19T05:47:54;5.97;;;4.13;;
15077;SDS011;7638;49.760;8.646;2023-02-19T05:50:20;4.40;;;3.87;;
15077;SDS011;7638;49.760;8.646;2023-02-19T05:52:46;7.40;;;4.43;;
15077;SDS011;7638;49.760;8.646;2023-02-19T05:55:12;4.33;;;3.70;;
15077;SDS011;7638;49.760;8.646;2023-02-19T05:57:39;4.23;;;3.20;;
15077;SDS011;7638;49.760;8.646;2023-02-19T06:00:05;5.93;;;3.90;;
15077;SDS011;7638;49.760;8.646;2023-02-19T06:02:31;5.23;;;3.87;;
15077;SDS011;7638;49.760;8.646;2023-02-19T06:04:57;3.33;;;2.73;;
15077;SDS011;7638;49.760;8.646;2023-02-19T06:07:23;4.30;;;3.03;;
15077;SDS011;7638;49.760;8.646;2023-02-19T06:09:49;4.53;;;3.87;;
15077;SDS011;7638;49.760;8.646;2023-02-19T06:12:15;3.80;;;3.37;;
15077;SDS011;7638;49.760;8.646;2023-02-19T06:14:41;4.97;;;3.40;;
15077;SDS011;7638;49.760;8.646;2023-02-19T06:17:07;3.50;;;3.20;;
15077;SDS011;7638;49.760;8.646;2023-02-19T06:19:33;5.10;;;4.03;;
15077;SDS011;7638;49.760;8.646;2023-02-19T06:21:59;4.90;;;3.73;;
15077;SDS011;7638;49.760;8.646;2023-02-19T06:24:25;4.13;;;3.37;;
15077;SDS011;7638;49.760;8.646;2023-02-19T06:26:51;3.77;;;3.40;;
15077;SDS011;7638;49.760;8.646;2023-02-19T06:29:17;3.43;;;3.13;;
15077;SDS011;7638;49.760;8.646;2023-02-19T06:31:43;3.33;;;3.00;;
15077;SDS011;7638;49.760;8.646;2023-02-19T06:34:09;3.80;;;3.03;;
15077;SDS011;7638;49.760;8.646;2023-02-19T06:36:35;3.37;;;3.07;;
15077;SDS011;7638;49.760;8.646;2023-02-19T06:39:02;4.37;;;3.00;;
15077;SDS011;7638;49.760;8.646;2023-02-19T06:41:28;3.30;;;3.00;;
15077;SDS011;7638;49.760;8.646;2023-02-19T06:43:55;4.47;;;2.97;;
15077;SDS011;7638;49.760;8.646;2023-02-19T06:46:21;4.00;;;2.97;;
15077;SDS011;7638;49.760;8.646;2023-02-19T06:48:47;2.67;;;2.40;;
15077;SDS011;7638;49.760;8.646;2023-02-19T06:51:14;2.97;;;2.57;;
15077;SDS011;7638;49.760;8.646;2023-02-19T06:53:42;3.10;;;2.80;;
15077;SDS011;7638;49.760;8.646;2023-02-19T06:56:22;3.57;;;2.80;;
15077;SDS011;7638;49.760;8.646;2023-02-19T06:58:49;4.20;;;2.30;;
15077;SDS011;7638;49.760;8.646;2023-02-19T07:01:15;3.97;;;2.47;;
15077;SDS011;7638;49.760;8.646;2023-02-19T07:03:41;4.80;;;2.43;;
15077;SDS011;7638;49.760;8.646;2023-02-19T07:06:07;4.07;;;2.47;;
15077;SDS011;7638;49.760;8.646;2023-02-19T07:08:33;4.17;;;2.73;;
15077;SDS011;7638;49.760;8.646;2023-02-19T07:10:59;2.63;;;2.00;;
15077;SDS011;7638;49.760;8.646;2023-02-19T07:13:25;2.60;;;2.20;;
15077;SDS011;7638;49.760;8.646;2023-02-19T07:15:57;3.40;;;2.03;;
15077;SDS011;7638;49.760;8.646;2023-02-19T07:18:23;4.00;;;2.17;;
15077;SDS011;7638;49.760;8.646;2023-02-19T07:20:49;4.03;;;2.17;;
15077;SDS011;7638;49.760;8.646;2023-02-19T07:23:15;3.97;;;2.07;;
15077;SDS011;7638;49.760;8.646;2023-02-19T07:25:41;2.33;;;1.70;;
15077;SDS011;7638;49.760;8.646;2023-02-19T07:28:07;3.77;;;2.07;;
15077;SDS011;7638;49.760;8.646;2023-02-19T07:30:33;3.53;;;2.10;;
15077;SDS011;7638;49.760;8.646;2023-02-19T07:32:59;1.97;;;1.77;;
15077;SDS011;7638;49.760;8.646;2023-02-19T07:35:25;1.80;;;1.60;;
15077;SDS011;7638;49.760;8.646;2023-02-19T07:37:51;2.00;;;1.70;;
15077;SDS011;7638;49.760;8.646;2023-02-19T07:40:17;2.23;;;2.03;;
15077;SDS011;7638;49.760;8.646;2023-02-19T07:42:43;3.50;;;2.47;;
15077;SDS011;7638;49.760;8.646;2023-02-19T07:45:09;4.63;;;2.27;;
15077;SDS011;7638;49.760;8.646;2023-02-19T07:47:35;5.23;;;2.57;;
15077;SDS011;7638;49.760;8.646;2023-02-19T07:50:02;2.73;;;1.87;;
15077;SDS011;7638;49.760;8.646;2023-02-19T07:52:28;2.73;;;2.20;;
15077;SDS011;7638;49.760;8.646;2023-02-19T07:54:54;3.00;;;2.33;;
15077;SDS011;7638;49.760;8.646;2023-02-19T07:57:20;3.17;;;2.00;;
15077;SDS011;7638;49.760;8.646;2023-02-19T07:59:46;3.20;;;2.43;;
15077;SDS011;7638;49.760;8.646;2023-02-19T08:02:16;3.43;;;1.83;;
15077;SDS011;7638;49.760;8.646;2023-02-19T08:05:01;1.70;;;1.60;;
15077;SDS011;7638;49.760;8.646;2023-02-19T08:07:32;3.00;;;1.83;;
15077;SDS011;7638;49.760;8.646;2023-02-19T08:09:58;6.90;;;2.30;;
15077;SDS011;7638;49.760;8.646;2023-02-19T08:12:42;2.47;;;1.50;;
15077;SDS011;7638;49.760;8.646;2023-02-19T08:15:27;1.70;;;1.60;;
15077;SDS011;7638;49.760;8.646;2023-02-19T08:17:53;2.30;;;1.90;;
15077;SDS011;7638;49.760;8.646;2023-02-19T08:20:19;3.77;;;2.00;;
15077;SDS011;7638;49.760;8.646;2023-02-19T08:22:45;3.27;;;1.87;;
15077;SDS011;7638;49.760;8.646;2023-02-19T08:25:11;2.27;;;1.97;;
15077;SDS011;7638;49.760;8.646;2023-02-19T08:27:37;2.67;;;2.00;;
15077;SDS011;7638;49.760;8.646;2023-02-19T08:30:03;3.87;;;1.60;;
15077;SDS011;7638;49.760;8.646;2023-02-19T08:32:29;1.97;;;1.50;;
15077;SDS011;7638;49.760;8.646;2023-02-19T08:34:56;2.90;;;2.07;;
15077;SDS011;7638;49.760;8.646;2023-02-19T08:37:22;3.40;;;2.30;;
15077;SDS011;7638;49.760;8.646;2023-02-19T08:39:48;1.50;;;1.40;;
15077;SDS011;7638;49.760;8.646;2023-02-19T08:42:14;2.33;;;1.70;;
15077;SDS011;7638;49.760;8.646;2023-02-19T08:44:40;2.03;;;1.57;;
15077;SDS011;7638;49.760;8.646;2023-02-19T08:47:06;2.33;;;1.60;;
15077;SDS011;7638;49.760;8.646;2023-02-19T08:49:32;2.23;;;1.67;;
15077;SDS011;7638;49.760;8.646;2023-02-19T08:51:58;2.83;;;1.90;;
15077;SDS011;7638;49.760;8.646;2023-02-19T08:54:24;4.87;;;1.90;;
15077;SDS011;7638;49.760;8.646;2023-02-19T08:56:50;2.03;;;1.87;;
15077;SDS011;7638;49.760;8.646;2023-02-19T08:59:16;2.50;;;2.00;;
15077;SDS011;7638;49.760;8.646;2023-02-19T09:01:44;3.93;;;2.27;;
15077;SDS011;7638;49.760;8.646;2023-02-19T09:04:13;2.50;;;1.90;;
15077;SDS011;7638;49.760;8.646;2023-02-19T09:06:39;6.93;;;2.43;;
15077;SDS011;7638;49.760;8.646;2023-02-19T09:09:05;4.37;;;2.07;;
15077;SDS011;7638;49.760;8.646;2023-02-19T09:11:31;6.37;;;2.57;;
15077;SDS011;7638;49.760;8.646;2023-02-19T09:13:57;2.40;;;1.97;;
15077;SDS011;7638;49.760;8.646;2023-02-19T09:16:23;3.80;;;2.30;;
15077;SDS011;7638;49.760;8.646;2023-02-19T09:18:49;5.37;;;2.57;;
15077;SDS011;7638;49.760;8.646;2023-02-19T09:21:15;4.47;;;2.23;;
15077;SDS011;7638;49.760;8.646;2023-02-19T09:23:41;6.00;;;2.07;;
15077;SDS011;7638;49.760;8.646;2023-02-19T09:26:08;5.40;;;2.40;;
15077;SDS011;7638;49.760;8.646;2023-02-19T09:28:35;3.50;;;2.30;;
15077;SDS011;7638;49.760;8.646;2023-02-19T09:31:04;3.77;;;2.17;;
15077;SDS011;7638;49.760;8.646;2023-02-19T09:33:30;5.37;;;2.00;;
15077;SDS011;7638;49.760;8.646;2023-02-19T09:35:59;4.90;;;2.27;;
15077;SDS011;7638;49.760;8.646;2023-02-19T09:38:26;8.00;;;2.17;;
15077;SDS011;7638;49.760;8.646;2023-02-19T09:40:53;2.53;;;1.67;;
15077;SDS011;7638;49.760;8.646;2023-02-19T09:43:19;4.87;;;1.80;;
15077;SDS011;7638;49.760;8.646;2023-02-19T09:45:47;4.83;;;1.50;;
15077;SDS011;7638;49.760;8.646;2023-02-19T09:48:15;3.60;;;1.90;;
15077;SDS011;7638;49.760;8.646;2023-02-19T09:50:44;2.10;;;1.90;;
15077;SDS011;7638;49.760;8.646;2023-02-19T09:53:19;6.10;;;2.13;;
15077;SDS011;7638;49.760;8.646;2023-02-19T09:55:47;3.40;;;2.03;;
15077;SDS011;7638;49.760;8.646;2023-02-19T09:58:33;4.03;;;2.70;;
15077;SDS011;7638;49.760;8.646;2023-02-19T10:01:00;3.83;;;1.70;;
15077;SDS011;7638;49.760;8.646;2023-02-19T10:03:28;3.10;;;1.80;;
15077;SDS011;7638;49.760;8.646;2023-02-19T10:06:20;4.33;;;1.57;;
15077;SDS011;7638;49.760;8.646;2023-02-19T10:08:47;6.80;;;1.90;;
15077;SDS011;7638;49.760;8.646;2023-02-19T10:11:14;5.30;;;1.60;;
15077;SDS011;7638;49.760;8.646;2023-02-19T10:13:41;2.97;;;1.97;;
15077;SDS011;7638;49.760;8.646;2023-02-19T10:16:10;1.90;;;1.40;;
15077;SDS011;7638;49.760;8.646;2023-02-19T10:18:40;3.53;;;1.60;;
15077;SDS011;7638;49.760;8.646;2023-02-19T10:21:09;3.80;;;2.30;;
15077;SDS011;7638;49.760;8.646;2023-02-19T10:23:37;3.30;;;1.73;;
15077;SDS011;7638;49.760;8.646;2023-02-19T10:26:04;5.43;;;2.00;;
15077;SDS011;7638;49.760;8.646;2023-02-19T10:28:31;4.63;;;1.80;;
15077;SDS011;7638;49.760;8.646;2023-02-19T10:30:58;4.93;;;1.80;;
15077;SDS011;7638;49.760;8.646;2023-02-19T10:33:25;4.40;;;1.60;;
15077;SDS011;7638;49.760;8.646;2023-02-19T10:36:04;4.10;;;1.30;;
15077;SDS011;7638;49.760;8.646;2023-02-19T10:43:29;2.50;;;1.23;;
15077;SDS011;7638;49.760;8.646;2023-02-19T10:46:01;2.03;;;1.27;;
15077;SDS011;7638;49.760;8.646;2023-02-19T10:48:29;4.60;;;1.20;;
15077;SDS011;7638;49.760;8.646;2023-02-19T10:50:58;2.30;;;1.30;;
15077;SDS011;7638;49.760;8.646;2023-02-19T10:56:09;3.73;;;1.30;;
15077;SDS011;7638;49.760;8.646;2023-02-19T10:58:35;4.37;;;1.20;;
15077;SDS011;7638;49.760;8.646;2023-02-19T11:01:15;1.60;;;1.23;;
15077;SDS011;7638;49.760;8.646;2023-02-19T11:03:43;3.50;;;1.50;;
15077;SDS011;7638;49.760;8.646;2023-02-19T11:06:09;2.37;;;1.20;;
15077;SDS011;7638;49.760;8.646;2023-02-19T11:08:49;4.23;;;1.20;;
15077;SDS011;7638;49.760;8.646;2023-02-19T11:11:27;6.87;;;1.50;;
15077;SDS011;7638;49.760;8.646;2023-02-19T11:13:54;3.37;;;1.40;;
15077;SDS011;7638;49.760;8.646;2023-02-19T11:16:22;3.00;;;1.23;;
15077;SDS011;7638;49.760;8.646;2023-02-19T11:18:52;2.83;;;1.10;;
15077;SDS011;7638;49.760;8.646;2023-02-19T11:21:27;6.30;;;1.50;;
15077;SDS011;7638;49.760;8.646;2023-02-19T11:23:58;4.03;;;1.40;;
15077;SDS011;7638;49.760;8.646;2023-02-19T11:26:25;2.57;;;1.60;;
15077;SDS011;7638;49.760;8.646;2023-02-19T11:28:59;2.33;;;1.20;;
15077;SDS011;7638;49.760;8.646;2023-02-19T11:31:26;3.70;;;1.13;;
15077;SDS011;7638;49.760;8.646;2023-02-19T11:36:23;4.93;;;1.60;;
15077;SDS011;7638;49.760;8.646;2023-02-19T11:38:50;7.23;;;1.90;;
15077;SDS011;7638;49.760;8.646;2023-02-19T11:49:46;2.77;;;1.30;;
15077;SDS011;7638;49.760;8.646;2023-02-19T11:51:51;4.43;;;1.67;;
15077;SDS011;7638;49.760;8.646;2023-02-19T11:54:26;3.63;;;1.67;;
15077;SDS011;7638;49.760;8.646;2023-02-19T11:57:00;3.20;;;1.20;;
15077;SDS011;7638;49.760;8.646;2023-02-19T11:59:33;2.50;;;1.33;;
15077;SDS011;7638;49.760;8.646;2023-02-19T12:02:17;2.17;;;1.20;;
15077;SDS011;7638;49.760;8.646;2023-02-19T12:07:39;1.60;;;1.37;;
15077;SDS011;7638;49.760;8.646;2023-02-19T12:17:59;1.93;;;1.07;;
15077;SDS011;7638;49.760;8.646;2023-02-19T12:33:34;3.87;;;1.87;;
15077;SDS011;7638;49.760;8.646;2023-02-19T12:38:30;1.93;;;1.40;;
15077;SDS011;7638;49.760;8.646;2023-02-19T12:43:23;5.00;;;1.30;;
15077;SDS011;7638;49.760;8.646;2023-02-19T12:50:45;3.80;;;1.60;;
15077;SDS011;7638;49.760;8.646;2023-02-19T12:55:44;1.67;;;1.33;;
15077;SDS011;7638;49.760;8.646;2023-02-19T12:58:22;3.20;;;1.43;;
15077;SDS011;7638;49.760;8.646;2023-02-19T13:00:52;2.37;;;1.73;;
15077;SDS011;7638;49.760;8.646;2023-02-19T13:03:27;4.30;;;1.87;;
15077;SDS011;7638;49.760;8.646;2023-02-19T13:08:41;3.93;;;1.40;;
15077;SDS011;7638;49.760;8.646;2023-02-19T13:11:09;6.17;;;1.57;;
15077;SDS011;7638;49.760;8.646;2023-02-19T13:16:09;4.00;;;1.30;;
15077;SDS011;7638;49.760;8.646;2023-02-19T13:18:45;4.70;;;1.63;;
15077;SDS011;7638;49.760;8.646;2023-02-19T13:21:12;6.97;;;2.53;;
15077;SDS011;7638;49.760;8.646;2023-02-19T13:24:02;8.77;;;2.00;;
15077;SDS011;7638;49.760;8.646;2023-02-19T13:34:30;3.93;;;1.70;;
15077;SDS011;7638;49.760;8.646;2023-02-19T13:36:58;3.43;;;1.47;;
15077;SDS011;7638;49.760;8.646;2023-02-19T13:39:25;5.83;;;1.60;;
15077;SDS011;7638;49.760;8.646;2023-02-19T13:41:52;2.77;;;1.13;;
15077;SDS011;7638;49.760;8.646;2023-02-19T13:44:19;8.33;;;1.43;;
15077;SDS011;7638;49.760;8.646;2023-02-19T13:46:47;5.73;;;1.47;;
15077;SDS011;7638;49.760;8.646;2023-02-19T13:54:27;2.63;;;1.87;;
15077;SDS011;7638;49.760;8.646;2023-02-19T13:59:39;6.77;;;1.70;;
15077;SDS011;7638;49.760;8.646;2023-02-19T14:04:54;2.00;;;1.30;;
15077;SDS011;7638;49.760;8.646;2023-02-19T14:09:53;3.60;;;1.70;;
15077;SDS011;7638;49.760;8.646;2023-02-19T14:12:20;5.80;;;1.40;;
15077;SDS011;7638;49.760;8.646;2023-02-19T14:14:53;3.00;;;1.80;;
15077;SDS011;7638;49.760;8.646;2023-02-19T14:17:39;2.77;;;1.90;;
15077;SDS011;7638;49.760;8.646;2023-02-19T14:28:16;3.93;;;1.67;;
15077;SDS011;7638;49.760;8.646;2023-02-19T14:31:01;3.43;;;1.50;;
15077;SDS011;7638;49.760;8.646;2023-02-19T14:33:29;3.03;;;1.40;;
15077;SDS011;7638;49.760;8.646;2023-02-19T14:36:13;2.10;;;1.00;;
15077;SDS011;7638;49.760;8.646;2023-02-19T14:38:43;2.93;;;1.20;;
15077;SDS011;7638;49.760;8.646;2023-02-19T14:41:11;2.03;;;1.30;;
15077;SDS011;7638;49.760;8.646;2023-02-19T14:43:37;1.70;;;1.20;;
15077;SDS011;7638;49.760;8.646;2023-02-19T14:48:43;3.23;;;1.30;;
15077;SDS011;7638;49.760;8.646;2023-02-19T14:51:14;6.30;;;1.50;;
15077;SDS011;7638;49.760;8.646;2023-02-19T14:53:42;1.77;;;1.33;;
15077;SDS011;7638;49.760;8.646;2023-02-19T14:56:25;1.70;;;1.40;;
15077;SDS011;7638;49.760;8.646;2023-02-19T15:01:37;3.43;;;1.53;;
15077;SDS011;7638;49.760;8.646;2023-02-19T15:04:03;3.73;;;1.50;;
15077;SDS011;7638;49.760;8.646;2023-02-19T15:06:30;2.73;;;1.67;;
15077;SDS011;7638;49.760;8.646;2023-02-19T15:08:57;3.83;;;1.63;;
15077;SDS011;7638;49.760;8.646;2023-02-19T15:11:24;7.67;;;1.60;;
15077;SDS011;7638;49.760;8.646;2023-02-19T15:13:53;2.03;;;1.20;;
15077;SDS011;7638;49.760;8.646;2023-02-19T15:16:21;6.00;;;1.77;;
15077;SDS011;7638;49.760;8.646;2023-02-19T15:18:48;4.37;;;1.80;;
15077;SDS011;7638;49.760;8.646;2023-02-19T15:21:37;4.23;;;1.70;;
15077;SDS011;7638;49.760;8.646;2023-02-19T15:24:02;2.33;;;1.30;;
15077;SDS011;7638;49.760;8.646;2023-02-19T15:28:58;6.90;;;2.30;;
15077;SDS011;7638;49.760;8.646;2023-02-19T15:31:24;6.60;;;1.97;;
15077;SDS011;7638;49.760;8.646;2023-02-19T15:33:50;1.73;;;1.33;;
15077;SDS011;7638;49.760;8.646;2023-02-19T15:36:21;3.83;;;1.63;;
15077;SDS011;7638;49.760;8.646;2023-02-19T15:38:52;4.53;;;1.20;;
15077;SDS011;7638;49.760;8.646;2023-02-19T15:41:18;4.43;;;1.53;;
15077;SDS011;7638;49.760;8.646;2023-02-19T15:43:48;3.30;;;1.80;;
15077;SDS011;7638;49.760;8.646;2023-02-19T15:46:18;6.17;;;1.80;;
15077;SDS011;7638;49.760;8.646;2023-02-19T15:49:06;4.63;;;1.67;;
15077;SDS011;7638;49.760;8.646;2023-02-19T15:51:43;4.37;;;1.53;;
15077;SDS011;7638;49.760;8.646;2023-02-19T15:54:18;4.83;;;1.93;;
15077;SDS011;7638;49.760;8.646;2023-02-19T15:56:48;2.80;;;1.60;;
15077;SDS011;7638;49.760;8.646;2023-02-19T15:59:28;5.73;;;2.67;;
15077;SDS011;7638;49.760;8.646;2023-02-19T16:01:55;4.80;;;2.87;;
15077;SDS011;7638;49.760;8.646;2023-02-19T16:04:22;2.00;;;1.50;;
15077;SDS011;7638;49.760;8.646;2023-02-19T16:09:21;2.80;;;1.40;;
15077;SDS011;7638;49.760;8.646;2023-02-19T16:11:51;2.67;;;1.40;;
15077;SDS011;7638;49.760;8.646;2023-02-19T16:16:43;4.33;;;2.37;;
15077;SDS011;7638;49.760;8.646;2023-02-19T16:19:10;2.30;;;1.83;;
15077;SDS011;7638;49.760;8.646;2023-02-19T16:21:37;2.73;;;2.50;;
15077;SDS011;7638;49.760;8.646;2023-02-19T16:26:42;3.53;;;1.80;;
15077;SDS011;7638;49.760;8.646;2023-02-19T16:29:19;2.80;;;1.50;;
15077;SDS011;7638;49.760;8.646;2023-02-19T16:31:53;3.50;;;2.33;;
15077;SDS011;7638;49.760;8.646;2023-02-19T16:34:38;8.53;;;2.47;;
15077;SDS011;7638;49.760;8.646;2023-02-19T16:39:52;3.53;;;1.60;;
15077;SDS011;7638;49.760;8.646;2023-02-19T16:42:29;1.80;;;1.50;;
15077;SDS011;7638;49.760;8.646;2023-02-19T16:44:55;3.00;;;2.10;;
15077;SDS011;7638;49.760;8.646;2023-02-19T16:47:26;4.57;;;2.27;;
15077;SDS011;7638;49.760;8.646;2023-02-19T16:49:52;3.40;;;2.00;;
15077;SDS011;7638;49.760;8.646;2023-02-19T16:52:19;2.40;;;1.60;;
15077;SDS011;7638;49.760;8.646;2023-02-19T16:54:46;5.68;;;2.22;;
15077;SDS011;7638;49.760;8.646;2023-02-19T16:57:13;2.50;;;1.40;;
15077;SDS011;7638;49.760;8.646;2023-02-19T16:59:39;2.30;;;2.10;;
15077;SDS011;7638;49.760;8.646;2023-02-19T17:02:09;3.97;;;1.80;;
15077;SDS011;7638;49.760;8.646;2023-02-19T17:04:39;1.80;;;1.63;;
15077;SDS011;7638;49.760;8.646;2023-02-19T17:07:05;3.43;;;1.57;;
15077;SDS011;7638;49.760;8.646;2023-02-19T17:09:31;2.20;;;1.90;;
15077;SDS011;7638;49.760;8.646;2023-02-19T17:11:57;4.27;;;2.00;;
15077;SDS011;7638;49.760;8.646;2023-02-19T17:14:23;2.97;;;1.93;;
15077;SDS011;7638;49.760;8.646;2023-02-19T17:16:49;4.67;;;2.33;;
15077;SDS011;7638;49.760;8.646;2023-02-19T17:19:16;6.17;;;2.50;;
15077;SDS011;7638;49.760;8.646;2023-02-19T17:21:43;3.70;;;3.00;;
15077;SDS011;7638;49.760;8.646;2023-02-19T17:24:09;5.17;;;3.07;;